| time (UTC) | temp C | wind direction | speed KPH | gust KPH | rain 1hr cm | rain 24hr cm | rain mn cm | humidity % | barometer mb |
| 20260906053006 | 22 | 63 | 4.8 | 9.7 | 0.00 | 0.03 | 0.00 | 95 | 1012.4 |
| 20260906051602 | 22 | 50 | 3.2 | 8.0 | 0.00 | 0.03 | 0.00 | 95 | 1012.5 |
| 20260906050059 | 22 | 46 | 1.6 | 6.4 | 0.00 | 0.03 | 0.00 | 94 | 1012.4 |
| 20260906044556 | 22 | 50 | 3.2 | 8.0 | 0.00 | 0.03 | 0.00 | 94 | 1012.4 |
| 20260906043054 | 22 | 55 | 0.0 | 6.4 | 0.00 | 0.03 | 0.00 | 93 | 1012.3 |
| 20260906041550 | 22 | 65 | 1.6 | 9.7 | 0.00 | 0.03 | 0.00 | 93 | 1012.0 |
| 20260906040049 | 23 | 56 | 3.2 | 14.5 | 0.00 | 0.03 | 0.00 | 93 | 1012.0 |
| 20260906034544 | 23 | 57 | 6.4 | 17.7 | 0.00 | 0.03 | 0.03 | 92 | 1011.9 |
| 20260906033045 | 23 | 79 | 6.4 | 19.3 | 0.00 | 0.03 | 0.03 | 92 | 1012.0 |
| 20260906031542 | 23 | 69 | 8.0 | 16.1 | 0.00 | 0.03 | 0.03 | 91 | 1012.0 |
| 20260906030041 | 23 | 81 | 6.4 | 14.5 | 0.00 | 0.03 | 0.03 | 92 | 1012.0 |
| 20260906024540 | 23 | 73 | 6.4 | 17.7 | 0.00 | 0.03 | 0.03 | 91 | 1011.9 |
| 20260906023045 | 24 | 80 | 9.7 | 25.7 | 0.00 | 0.03 | 0.03 | 91 | 1011.8 |
| 20260906021540 | 23 | 58 | 6.4 | 16.1 | 0.00 | 0.03 | 0.03 | 91 | 1011.9 |
| 20260906020039 | 24 | 76 | 8.0 | 17.7 | 0.00 | 0.03 | 0.03 | 90 | 1011.5 |
| 20260906014544 | 24 | 29 | 8.0 | 17.7 | 0.00 | 0.03 | 0.03 | 88 | 1011.4 |
| 20260906013040 | 23 | 73 | 8.0 | 12.9 | 0.00 | 0.03 | 0.03 | 87 | 1010.9 |
| 20260906011537 | 23 | 51 | 0.0 | 3.2 | 0.00 | 0.03 | 0.03 | 86 | 1010.9 |
| 20260906010037 | 23 | 51 | 0.0 | 4.8 | 0.00 | 0.03 | 0.03 | 85 | 1010.7 |
| 20260906004536 | 23 | 47 | 4.8 | 8.0 | 0.00 | 0.03 | 0.03 | 84 | 1010.7 |
| 20260906003036 | 24 | 49 | 0.0 | 3.2 | 0.00 | 0.03 | 0.03 | 84 | 1010.2 |
| 20260906001535 | 24 | 49 | 1.6 | 4.8 | 0.00 | 0.03 | 0.03 | 83 | 1010.1 |
| 20260906000035 | 25 | 49 | 1.6 | 6.4 | 0.00 | 0.03 | 0.03 | 81 | 1010.1 |
| 20260905234535 | 25 | 11 | 1.6 | 6.4 | 0.00 | 0.03 | 0.03 | 81 | 1010.1 |
| 20260905233037 | 25 | 61 | 4.8 | 11.3 | 0.00 | 0.03 | 0.03 | 80 | 1010.1 |
| 20260905231544 | 26 | 54 | 8.0 | 20.9 | 0.00 | 0.03 | 0.03 | 77 | 1010.3 |
| 20260905230032 | 27 | 35 | 16.1 | 27.4 | 0.00 | 0.03 | 0.03 | 70 | 1010.5 |
| 20260905224531 | 31 | 22 | 4.8 | 9.7 | 0.00 | 0.03 | 0.03 | 66 | 1010.1 |
| 20260905223032 | 32 | 327 | 4.8 | 19.3 | 0.00 | 0.03 | 0.03 | 64 | 1009.7 |
| 20260905221537 | 32 | 327 | 4.8 | 14.5 | 0.00 | 0.03 | 0.03 | 64 | 1009.2 |
| 20260905220029 | 31 | 318 | 4.8 | 12.9 | 0.00 | 0.03 | 0.03 | 66 | 1009.4 |
| 20260905214529 | 31 | 281 | 4.8 | 9.7 | 0.00 | 0.03 | 0.03 | 66 | 1009.4 |
| 20260905213034 | 31 | 281 | 4.8 | 12.9 | 0.00 | 0.03 | 0.03 | 64 | 1009.7 |
| 20260905211532 | 31 | 276 | 6.4 | 14.5 | 0.00 | 0.03 | 0.03 | 61 | 1009.3 |
| 20260905210029 | 32 | 277 | 4.8 | 14.5 | 0.00 | 0.03 | 0.03 | 61 | 1009.8 |
| 20260905204523 | 32 | 319 | 8.0 | 12.9 | 0.00 | 0.03 | 0.03 | 61 | 1009.7 |
| 20260905203022 | 33 | 331 | 4.8 | 16.1 | 0.00 | 0.03 | 0.03 | 58 | 1009.9 |
| 20260905201526 | 33 | 274 | 6.4 | 16.1 | 0.00 | 0.03 | 0.03 | 57 | 1010.1 |
| 20260905200017 | 33 | 282 | 3.2 | 14.5 | 0.00 | 0.03 | 0.03 | 59 | 1010.2 |
| 20260905194515 | 32 | 217 | 4.8 | 14.5 | 0.00 | 0.03 | 0.03 | 57 | 1010.3 |
| 20260905193016 | 33 | 257 | 8.0 | 16.1 | 0.00 | 0.03 | 0.03 | 57 | 1010.3 |
| 20260905191512 | 32 | 272 | 11.3 | 22.5 | 0.00 | 0.03 | 0.03 | 57 | 1010.7 |
| 20260905190009 | 32 | 308 | 4.8 | 12.9 | 0.00 | 0.03 | 0.03 | 59 | 1010.9 |
| 20260905184508 | 32 | 250 | 4.8 | 14.5 | 0.00 | 0.03 | 0.03 | 59 | 1011.0 |
| 20260905183006 | 32 | 194 | 3.2 | 9.7 | 0.00 | 0.03 | 0.03 | 61 | 1011.3 |
| 20260905181502 | 31 | 236 | 3.2 | 12.9 | 0.00 | 0.03 | 0.03 | 60 | 1011.3 |
| 20260905180059 | 31 | 267 | 6.4 | 17.7 | 0.00 | 0.03 | 0.03 | 61 | 1011.4 |
| 20260905174600 | 31 | 247 | 1.6 | 19.3 | 0.00 | 0.03 | 0.03 | 62 | 1011.5 |
| 20260905173058 | 30 | 205 | 4.8 | 11.3 | 0.00 | 0.03 | 0.03 | 61 | 1011.7 |
| 20260905171553 | 30 | 223 | 4.8 | 11.3 | 0.00 | 0.03 | 0.03 | 63 | 1011.9 |
| 20260905170048 | 28 | 167 | 3.2 | 11.3 | 0.00 | 0.03 | 0.03 | 65 | 1012.2 |
| 20260905164544 | 28 | 209 | 1.6 | 4.8 | 0.00 | 0.03 | 0.03 | 69 | 1012.6 |
| 20260905163043 | 27 | 208 | 4.8 | 9.7 | 0.00 | 0.03 | 0.03 | 69 | 1012.6 |
| 20260905161542 | 27 | 179 | 3.2 | 9.7 | 0.00 | 0.03 | 0.03 | 69 | 1012.8 |
| 20260905160042 | 27 | 190 | 4.8 | 14.5 | 0.00 | 0.03 | 0.03 | 67 | 1012.8 |
| 20260905154539 | 27 | 194 | 3.2 | 12.9 | 0.00 | 0.03 | 0.03 | 68 | 1012.7 |
| 20260905153036 | 26 | 216 | 3.2 | 16.1 | 0.00 | 0.03 | 0.03 | 71 | 1012.7 |
| 20260905151532 | 26 | 154 | 3.2 | 9.7 | 0.00 | 0.03 | 0.03 | 74 | 1012.6 |
| 20260905150028 | 25 | 173 | 4.8 | 16.1 | 0.00 | 0.03 | 0.03 | 75 | 1012.5 |
| 20260905144525 | 25 | 179 | 6.4 | 17.7 | 0.00 | 0.03 | 0.03 | 75 | 1012.6 |
| 20260905143028 | 24 | 173 | 3.2 | 9.7 | 0.00 | 0.03 | 0.03 | 76 | 1012.9 |
| 20260905141519 | 23 | 175 | 3.2 | 12.9 | 0.00 | 0.03 | 0.03 | 79 | 1013.0 |
| 20260905140017 | 23 | 162 | 4.8 | 9.7 | 0.00 | 0.03 | 0.03 | 81 | 1013.1 |
| 20260905134518 | 22 | 174 | 3.2 | 8.0 | 0.00 | 0.03 | 0.03 | 83 | 1013.1 |
| 20260905133018 | 22 | 163 | 3.2 | 8.0 | 0.00 | 0.03 | 0.03 | 85 | 1013.2 |
| 20260905131530 | 22 | 167 | 0.0 | 6.4 | 0.00 | 0.03 | 0.03 | 86 | 1013.4 |
| 20260905130014 | 21 | 182 | 0.0 | 3.2 | 0.00 | 0.03 | 0.03 | 87 | 1013.1 |
| 20260905124524 | 21 | 190 | 0.0 | 8.0 | 0.00 | 0.03 | 0.03 | 88 | 1013.0 |
| 20260905123010 | 21 | 146 | 0.0 | 4.8 | 0.00 | 0.03 | 0.03 | 88 | 1013.0 |
| 20260905121520 | 21 | 65 | 0.0 | 3.2 | 0.00 | 0.03 | 0.03 | 89 | 1013.0 |
| 20260905120009 | 21 | 89 | 1.6 | 14.5 | 0.00 | 0.03 | 0.03 | 88 | 1013.2 |
| 20260905114517 | 21 | 102 | 0.0 | 6.4 | 0.03 | 0.03 | 0.03 | 89 | 1012.8 |
| 20260905113005 | 21 | 79 | 0.0 | 19.3 | 0.03 | 0.03 | 0.03 | 89 | 1012.9 |
| 20260905111504 | 21 | 126 | 1.6 | 16.1 | 0.03 | 0.03 | 0.03 | 90 | 1012.7 |
| 20260905110001 | 21 | 110 | 3.2 | 14.5 | 0.03 | 0.03 | 0.03 | 88 | 1012.5 |
| 20260905104558 | 22 | 80 | 6.4 | 25.7 | 0.00 | 0.00 | 0.00 | 85 | 1012.9 |
| 20260905103054 | 22 | 93 | 6.4 | 30.6 | 0.00 | 0.00 | 0.00 | 87 | 1012.8 |
| 20260905101608 | 22 | 89 | 12.9 | 30.6 | 0.00 | 0.00 | 0.00 | 95 | 1012.3 |
| 20260905100048 | 22 | 190 | 0.0 | 0.0 | 0.00 | 0.00 | 0.00 | 95 | 1011.4 |
| 20260905094547 | 22 | 190 | 0.0 | 0.0 | 0.00 | 0.00 | 0.00 | 95 | 1011.4 |
| 20260905093047 | 22 | 190 | 0.0 | 0.0 | 0.00 | 0.00 | 0.00 | 95 | 1011.2 |
| 20260905091548 | 22 | 190 | 0.0 | 0.0 | 0.00 | 0.00 | 0.00 | 95 | 1011.3 |
| 20260905090044 | 22 | 190 | 0.0 | 0.0 | 0.00 | 0.00 | 0.00 | 95 | 1011.3 |
| 20260905084600 | 23 | 190 | 0.0 | 0.0 | 0.00 | 0.00 | 0.00 | 94 | 1011.2 |
| 20260905083043 | 23 | 190 | 0.0 | 0.0 | 0.00 | 0.00 | 0.00 | 94 | 1011.3 |
| 20260905081544 | 23 | 190 | 0.0 | 0.0 | 0.00 | 0.00 | 0.00 | 94 | 1011.2 |
| 20260905080040 | 23 | 190 | 0.0 | 0.0 | 0.00 | 0.00 | 0.00 | 93 | 1011.0 |
| 20260905074538 | 23 | 190 | 0.0 | 1.6 | 0.00 | 0.00 | 0.00 | 93 | 1010.6 |
| 20260905073038 | 23 | 190 | 0.0 | 4.8 | 0.00 | 0.00 | 0.00 | 93 | 1010.3 |
| 20260905071535 | 23 | 190 | 0.0 | 0.0 | 0.00 | 0.00 | 0.00 | 92 | 1010.5 |
| 20260905070033 | 23 | 190 | 0.0 | 1.6 | 0.00 | 0.00 | 0.00 | 92 | 1010.6 |
| 20260905064532 | 23 | 190 | 0.0 | 3.2 | 0.00 | 0.00 | 0.00 | 92 | 1010.7 |
| 20260905063028 | 23 | 190 | 0.0 | 1.6 | 0.00 | 0.00 | 0.00 | 91 | 1011.1 |
| 20260905061525 | 23 | 190 | 0.0 | 4.8 | 0.00 | 0.00 | 0.00 | 92 | 1011.4 |
| 20260905060022 | 23 | 197 | 0.0 | 6.4 | 0.00 | 0.00 | 0.00 | 92 | 1011.4 |
| 20260905054520 | 23 | 119 | 0.0 | 3.2 | 0.00 | 0.00 | 0.00 | 92 | 1011.7 |